地図

経路データ

SID SEASON NUMBER BASIN SUBBASIN NAME ISO_TIME NATURE LAT LON WMO_WIND WMO_PRES WMO_AGENCY TRACK_TYPE DIST2LAND LANDFALL IFLAG USA_AGENCY USA_ATCF_ID USA_LAT USA_LON USA_RECORD USA_STATUS USA_WIND USA_PRES USA_SSHS USA_R34_NE USA_R34_SE USA_R34_SW USA_R34_NW USA_R50_NE USA_R50_SE USA_R50_SW USA_R50_NW USA_R64_NE USA_R64_SE USA_R64_SW USA_R64_NW USA_POCI USA_ROCI USA_RMW USA_EYE TOKYO_LAT TOKYO_LON TOKYO_GRADE TOKYO_WIND TOKYO_PRES TOKYO_R50_DIR TOKYO_R50_LONG TOKYO_R50_SHORT TOKYO_R30_DIR TOKYO_R30_LONG TOKYO_R30_SHORT TOKYO_LAND CMA_LAT CMA_LON CMA_CAT CMA_WIND CMA_PRES HKO_LAT HKO_LON HKO_CAT HKO_WIND HKO_PRES NEWDELHI_LAT NEWDELHI_LON NEWDELHI_GRADE NEWDELHI_WIND NEWDELHI_PRES NEWDELHI_CI NEWDELHI_DP NEWDELHI_POCI REUNION_LAT REUNION_LON REUNION_TYPE REUNION_WIND REUNION_PRES REUNION_TNUM REUNION_CI REUNION_RMW REUNION_R34_NE REUNION_R34_SE REUNION_R34_SW REUNION_R34_NW REUNION_R50_NE REUNION_R50_SE REUNION_R50_SW REUNION_R50_NW REUNION_R64_NE REUNION_R64_SE REUNION_R64_SW REUNION_R64_NW BOM_LAT BOM_LON BOM_TYPE BOM_WIND BOM_PRES BOM_TNUM BOM_CI BOM_RMW BOM_R34_NE BOM_R34_SE BOM_R34_SW BOM_R34_NW BOM_R50_NE BOM_R50_SE BOM_R50_SW BOM_R50_NW BOM_R64_NE BOM_R64_SE BOM_R64_SW BOM_R64_NW BOM_ROCI BOM_POCI BOM_EYE BOM_POS_METHOD BOM_PRES_METHOD NADI_LAT NADI_LON NADI_CAT NADI_WIND NADI_PRES WELLINGTON_LAT WELLINGTON_LON WELLINGTON_WIND WELLINGTON_PRES DS824_LAT DS824_LON DS824_STAGE DS824_WIND DS824_PRES TD9636_LAT TD9636_LON TD9636_STAGE TD9636_WIND TD9636_PRES TD9635_LAT TD9635_LON TD9635_WIND TD9635_PRES TD9635_ROCI NEUMANN_LAT NEUMANN_LON NEUMANN_CLASS NEUMANN_WIND NEUMANN_PRES MLC_LAT MLC_LON MLC_CLASS MLC_WIND MLC_PRES USA_GUST BOM_GUST BOM_GUST_PER REUNION_GUST REUNION_GUST_PER USA_SEAHGT USA_SEARAD_NE USA_SEARAD_SE USA_SEARAD_SW USA_SEARAD_NW STORM_SPEED STORM_DIR
1873231N35306 1873 14 NA NA NOT_NAMED 1873-08-18 12:00:00 TS 35.0000 -54.0000 main 1283 1273 _____________O -1 35.0000 -54.0000 TD 25 2 0
1873231N35306 1873 14 NA NA NOT_NAMED 1873-08-18 15:00:00 TS 35.1000 -54.0000 main 1273 1263 _____________P -1 35.1000 -54.0000 TD 25 2 8
1873231N35306 1873 14 NA NA NOT_NAMED 1873-08-18 18:00:00 TS 35.2000 -54.0000 main 1263 1253 _____________O -1 35.2000 -54.0000 TD 25 2 8
1873231N35306 1873 14 NA NA NOT_NAMED 1873-08-18 21:00:00 TS 35.3000 -54.0000 main 1253 1243 _____________P -1 35.3000 -54.0000 TD 25 2 8
1873231N35306 1873 14 NA NA NOT_NAMED 1873-08-19 00:00:00 TS 35.4000 -54.0000 main 1243 1233 _____________O -1 35.4000 -54.0000 TD 25 2 352
1873231N35306 1873 14 NA NA NOT_NAMED 1873-08-19 03:00:00 TS 35.5000 -54.0000 main 1233 1223 _____________P -1 35.5000 -54.0000 TD 27 2 8
1873231N35306 1873 14 NA NA NOT_NAMED 1873-08-19 06:00:00 TS 35.6000 -54.0000 main 1223 1213 _____________O -1 35.6000 -54.0000 TD 30 2 355
1873231N35306 1873 14 NA NA NOT_NAMED 1873-08-19 09:00:00 TS 35.6850 -54.0224 main 1213 1201 _____________P -1 35.6850 -54.0224 TD 30 2 8
1873231N35306 1873 14 NA NA NOT_NAMED 1873-08-19 12:00:00 TS 35.8000 -54.0000 main 1201 1179 _____________O -1 35.8000 -54.0000 TD 30 3 23
1873231N35306 1873 14 NA NA NOT_NAMED 1873-08-19 15:00:00 TS 35.9851 -53.8652 main 1179 1156 _____________P -1 35.9851 -53.8652 TD 30 5 31
1873231N35306 1873 14 NA NA NOT_NAMED 1873-08-19 18:00:00 TS 36.2000 -53.7000 main 1156 1134 _____________O -1 36.2000 -53.7000 TD 30 5 28
1873231N35306 1873 14 NA NA NOT_NAMED 1873-08-19 21:00:00 TS 36.3924 -53.5998 main 1134 1112 _____________P -1 36.3924 -53.5998 TD 32 4 22
1873231N35306 1873 14 NA NA NOT_NAMED 1873-08-20 00:00:00 TS 36.6000 -53.5000 main 1112 1090 _____________O -1 36.6000 -53.5000 TS 35 5 24
1873231N35306 1873 14 NA NA NOT_NAMED 1873-08-20 03:00:00 TS 36.8500 -53.3501 main 1079 1056 _____________P -1 36.8500 -53.3501 TS 35 6 26
1873231N35306 1873 14 NA NA NOT_NAMED 1873-08-20 06:00:00 TS 37.1000 -53.2000 main 1056 1034 _____________O -1 37.1000 -53.2000 TS 35 5 23
1873231N35306 1873 14 NA NA NOT_NAMED 1873-08-20 09:00:00 TS 37.2773 -53.1218 main 1034 1012 _____________P -1 37.2773 -53.1218 TS 37 4 21
1873231N35306 1873 14 NA NA NOT_NAMED 1873-08-20 12:00:00 TS 37.5000 -53.0000 main 1012 968 _____________O -1 37.5000 -53.0000 TS 40 7 27
1873231N35306 1873 14 NA NA NOT_NAMED 1873-08-20 15:00:00 TS 37.8775 -52.7378 main 968 925 _____________P -1 37.8775 -52.7378 TS 40 9 31
1873231N35306 1873 14 NA NA NOT_NAMED 1873-08-20 18:00:00 TS 38.3000 -52.4000 main 925 894 _____________O -1 38.3000 -52.4000 TS 40 9 35
1873231N35306 1873 14 NA NA NOT_NAMED 1873-08-20 21:00:00 TS 38.6500 -52.0497 main 883 853 _____________P -1 38.6500 -52.0497 TS 42 9 38
1873231N35306 1873 14 NA NA NOT_NAMED 1873-08-21 00:00:00 TS 39.0000 -51.7000 main 853 813 _____________O -1 39.0000 -51.7000 TS 45 9 34
1873231N35306 1873 14 NA NA NOT_NAMED 1873-08-21 03:00:00 TS 39.3999 -51.3922 main 813 774 _____________P -1 39.3999 -51.3922 TS 45 9 30
1873231N35306 1873 14 NA NA NOT_NAMED 1873-08-21 06:00:00 TS 39.8000 -51.1000 main 774 735 _____________O -1 39.8000 -51.1000 TS 45 9 29
1873231N35306 1873 14 NA NA NOT_NAMED 1873-08-21 09:00:00 TS 40.1720 -50.8368 main 737 709 _____________P -1 40.1720 -50.8368 TS 45 8 33
1873231N35306 1873 14 NA NA NOT_NAMED 1873-08-21 12:00:00 TS 40.5000 -50.5000 main 711 693 _____________O -1 40.5000 -50.5000 TS 45 9 47
1873231N35306 1873 14 NA NA NOT_NAMED 1873-08-21 15:00:00 TS 40.7652 -49.9873 main 693 689 _____________P -1 40.7652 -49.9873 TS 45 10 59
1873231N35306 1873 14 NA NA NOT_NAMED 1873-08-21 18:00:00 TS 41.0000 -49.4000 main 692 683 _____________O -1 41.0000 -49.4000 TS 45 10 61
1873231N35306 1873 14 NA NA NOT_NAMED 1873-08-21 21:00:00 TS 41.2497 -48.8496 main 695 683 _____________P -1 41.2497 -48.8496 TS 45 10 59
1873231N35306 1873 14 NA NA NOT_NAMED 1873-08-22 00:00:00 TS 41.5000 -48.3000 main 687 683 _____________O -1 41.5000 -48.3000 TS 45 10 59
1873231N35306 1873 14 NA NA NOT_NAMED 1873-08-22 03:00:00 TS 41.7496 -47.7570 main 693 689 _____________P -1 41.7496 -47.7570 TS 45 10 59
1873231N35306 1873 14 NA NA NOT_NAMED 1873-08-22 06:00:00 TS 42.0000 -47.2000 main 697 695 _____________O -1 42.0000 -47.2000 TS 45 10 61
1873231N35306 1873 14 NA NA NOT_NAMED 1873-08-22 09:00:00 TS 42.2354 -46.5550 main 715 713 _____________P -1 42.2354 -46.5550 TS 45 10 61
1873231N35306 1873 14 NA NA NOT_NAMED 1873-08-22 12:00:00 TS 42.5000 -46.0000 main 727 725 _____________O -1 42.5000 -46.0000 TS 45 9 46
1873231N35306 1873 14 NA NA NOT_NAMED 1873-08-22 15:00:00 TS 42.8419 -45.6968 main 725 710 _____________P -1 42.8419 -45.6968 TS 45 8 28
1873231N35306 1873 14 NA NA NOT_NAMED 1873-08-22 18:00:00 TS 43.2000 -45.5000 main 710 703 _____________O -1 43.2000 -45.5000 TS 45 7 26
1873231N35306 1873 14 NA NA NOT_NAMED 1873-08-22 21:00:00 TS 43.5074 -45.2497 main 710 704 _____________P -1 43.5074 -45.2497 TS 45 7 31
1873231N35306 1873 14 NA NA NOT_NAMED 1873-08-23 00:00:00 TS 43.8000 -45.0000 main 706 702 _____________O -1 43.8000 -45.0000 TS 45 7 31
1873231N35306 1873 14 NA NA NOT_NAMED 1873-08-23 03:00:00 TS 44.0999 -44.7497 main 710 705 _____________P -1 44.0999 -44.7497 TS 45 7 31
1873231N35306 1873 14 NA NA NOT_NAMED 1873-08-23 06:00:00 TS 44.4000 -44.5000 main 710 710 _____________O -1 44.4000 -44.5000 TS 45 7 36
1873231N35306 1873 14 NA NA NOT_NAMED 1873-08-23 09:00:00 TS 44.6476 -44.1908 main 720 714 _____________P -1 44.6476 -44.1908 TS 45 7 31
1873231N35306 1873 14 NA NA NOT_NAMED 1873-08-23 12:00:00 TS 45.0000 -44.0000 main 714 680 _____________O -1 45.0000 -44.0000 TS 45 10 4
1873231N35306 1873 14 NA NA NOT_NAMED 1873-08-23 15:00:00 TS 45.6050 -44.0958 main 680 641 _____________P -1 45.6050 -44.0958 TS 45 13 351
1873231N35306 1873 14 NA NA NOT_NAMED 1873-08-23 18:00:00 TS 46.3000 -44.3000 main 641 620 _____________O -1 46.3000 -44.3000 TS 45 13 350
1873231N35306 1873 14 NA NA NOT_NAMED 1873-08-23 21:00:00 TS 46.9075 -44.4080 main 620 605 _____________P -1 46.9075 -44.4080 TS 45 12 353
1873231N35306 1873 14 NA NA NOT_NAMED 1873-08-24 00:00:00 ET 47.5000 -44.5000 main 605 590 _____________O -1 47.5000 -44.5000 EX 45 12 352
1873231N35306 1873 14 NA NA NOT_NAMED 1873-08-24 03:00:00 ET 48.0924 -44.6652 main 590 590 _____________P -1 48.0924 -44.6652 EX 45 12 354
1873231N35306 1873 14 NA NA NOT_NAMED 1873-08-24 06:00:00 ET 48.7000 -44.7000 main 598 598 _____________O -1 48.7000 -44.7000 EX 45 13 5
1873231N35306 1873 14 NA NA NOT_NAMED 1873-08-24 09:00:00 ET 49.4171 -44.4725 main 622 622 _____________P -1 49.4171 -44.4725 EX 50 14 19
1873231N35306 1873 14 NA NA NOT_NAMED 1873-08-24 12:00:00 ET 50.0000 -44.0000 main 670 670 _____________O -1 50.0000 -44.0000 EX 55 11 42
1873231N35306 1873 14 NA NA NOT_NAMED 1873-08-24 15:00:00 ET 50.2330 -43.3433 main 723 723 _____________P -1 50.2330 -43.3433 EX 55 9 71
1873231N35306 1873 14 NA NA NOT_NAMED 1873-08-24 18:00:00 ET 50.3000 -42.6000 main 774 774 _____________O -1 50.3000 -42.6000 EX 55 9 79
1873231N35306 1873 14 NA NA NOT_NAMED 1873-08-24 21:00:00 ET 50.3994 -41.9490 main 825 825 _____________P -1 50.3994 -41.9490 EX 55 8 76
1873231N35306 1873 14 NA NA NOT_NAMED 1873-08-25 00:00:00 ET 50.5000 -41.3000 main 868 868 _____________O -1 50.5000 -41.3000 EX 55 9 74
1873231N35306 1873 14 NA NA NOT_NAMED 1873-08-25 03:00:00 ET 50.6497 -40.6078 main 919 919 _____________P -1 50.6497 -40.6078 EX 50 9 71
1873231N35306 1873 14 NA NA NOT_NAMED 1873-08-25 06:00:00 ET 50.8000 -39.9000 main 971 971 _____________O -1 50.8000 -39.9000 EX 45 9 74
1873231N35306 1873 14 NA NA NOT_NAMED 1873-08-25 09:00:00 ET 50.9133 -39.1976 main 1021 1021 _____________P -1 50.9133 -39.1976 EX 40 9 77
1873231N35306 1873 14 NA NA NOT_NAMED 1873-08-25 12:00:00 ET 51.0000 -38.5000 main 1047 _____________O -1 51.0000 -38.5000 EX 35 9 79

IBTrACS Databaseについて

本データベースは、米国NOAAが公開する1842年以降の世界の熱帯低気圧のベストトラックデータアーカイブInternational Best Track Archive for Climate Stewardship (IBTrACS)を、ウェブで閲覧しやすい形式に変換したものです。

最終更新日:2021-12-06